createdAt,value
2023-04-23T00:02:23.751Z,3.03
2023-04-23T00:04:54.289Z,3.03
2023-04-23T00:07:22.499Z,3.10
2023-04-23T00:09:53.876Z,2.90
2023-04-23T00:12:22.229Z,2.33
2023-04-23T00:14:50.258Z,2.23
2023-04-23T00:17:18.185Z,2.57
2023-04-23T00:19:46.111Z,2.50
2023-04-23T00:22:14.519Z,2.30
2023-04-23T00:24:42.340Z,2.40
2023-04-23T00:27:11.667Z,2.43
2023-04-23T00:29:39.461Z,2.60
2023-04-23T00:32:09.098Z,2.13
2023-04-23T00:34:36.927Z,2.40
2023-04-23T00:37:06.776Z,2.30
2023-04-23T00:39:35.880Z,2.90
2023-04-23T00:42:10.534Z,2.57
2023-04-23T00:44:40.852Z,2.27
2023-04-23T00:47:08.886Z,2.50
2023-04-23T00:49:36.901Z,2.63
2023-04-23T00:52:05.150Z,2.37
2023-04-23T00:54:32.893Z,2.30
2023-04-23T00:57:01.000Z,2.30
2023-04-23T00:59:29.771Z,2.30
2023-04-23T01:01:59.869Z,2.10
2023-04-23T01:04:31.211Z,2.13
2023-04-23T01:07:00.551Z,3.23
2023-04-23T01:09:28.788Z,2.70
2023-04-23T01:11:58.718Z,2.70
2023-04-23T01:14:27.342Z,2.50
2023-04-23T01:16:56.301Z,2.90
2023-04-23T01:19:25.583Z,2.70
2023-04-23T01:21:53.447Z,2.80
2023-04-23T01:24:22.595Z,2.00
2023-04-23T01:26:51.562Z,2.30
2023-04-23T01:29:19.417Z,2.13
2023-04-23T01:31:48.494Z,2.10
2023-04-23T01:34:16.598Z,2.27
2023-04-23T01:36:46.609Z,2.50
2023-04-23T01:39:14.353Z,2.30
2023-04-23T01:41:43.595Z,2.50
2023-04-23T01:44:11.584Z,2.00
2023-04-23T01:46:39.420Z,2.10
2023-04-23T01:49:07.424Z,2.33
2023-04-23T01:51:35.828Z,2.23
2023-04-23T01:54:03.580Z,1.80
2023-04-23T01:56:33.415Z,2.10
2023-04-23T01:59:02.810Z,1.90
2023-04-23T02:01:44.151Z,1.80
2023-04-23T02:04:13.575Z,1.90
2023-04-23T02:06:42.790Z,2.00
2023-04-23T02:09:11.655Z,2.23
2023-04-23T02:11:39.749Z,2.60
2023-04-23T02:14:09.783Z,3.10
2023-04-23T02:16:37.782Z,4.10
2023-04-23T02:19:05.826Z,3.10
2023-04-23T02:21:33.641Z,2.87
2023-04-23T02:24:01.433Z,3.20
2023-04-23T02:26:29.749Z,2.87
2023-04-23T02:28:57.468Z,2.73
2023-04-23T02:31:26.760Z,2.53
2023-04-23T02:33:55.847Z,2.40
2023-04-23T02:36:23.662Z,2.37
2023-04-23T02:38:51.553Z,2.57
2023-04-23T02:41:19.314Z,2.57
2023-04-23T02:43:47.065Z,2.70
2023-04-23T02:46:14.803Z,2.50
2023-04-23T02:48:43.935Z,2.57
2023-04-23T02:51:13.377Z,2.30
2023-04-23T02:53:41.192Z,2.07
2023-04-23T02:56:08.958Z,2.10
2023-04-23T02:58:36.948Z,1.90
2023-04-23T03:01:05.337Z,2.00
2023-04-23T03:03:34.100Z,2.43
2023-04-23T03:06:07.790Z,2.30
2023-04-23T03:08:35.605Z,2.50
2023-04-23T03:11:03.295Z,2.20
2023-04-23T03:13:31.153Z,2.30
2023-04-23T03:15:58.896Z,2.13
2023-04-23T03:18:27.565Z,1.90
2023-04-23T03:20:56.946Z,1.83
2023-04-23T03:23:26.076Z,1.73
2023-04-23T03:25:53.758Z,1.80
2023-04-23T03:28:21.454Z,1.60
2023-04-23T03:30:49.193Z,1.70
2023-04-23T03:33:17.151Z,1.70
2023-04-23T03:35:45.026Z,1.60
2023-04-23T03:38:17.440Z,1.60
2023-04-23T03:40:46.787Z,1.63
2023-04-23T03:43:14.542Z,1.60
2023-04-23T03:46:00.719Z,2.10
2023-04-23T03:48:30.294Z,2.00
2023-04-23T03:50:58.789Z,2.00
2023-04-23T03:53:35.707Z,1.70
2023-04-23T03:56:25.148Z,2.30
2023-04-23T03:59:08.868Z,2.00
2023-04-23T04:01:37.077Z,2.30
2023-04-23T04:04:05.154Z,2.13
2023-04-23T04:06:33.977Z,2.20
2023-04-23T04:09:01.720Z,1.87
2023-04-23T04:11:31.499Z,2.00
2023-04-23T04:13:59.211Z,1.80
2023-04-23T04:16:26.933Z,1.80
2023-04-23T04:18:56.321Z,1.70
2023-04-23T04:21:24.406Z,1.90
2023-04-23T04:23:52.115Z,1.77
2023-04-23T04:26:20.448Z,2.00
2023-04-23T04:28:49.484Z,1.90
2023-04-23T04:31:17.287Z,1.53
2023-04-23T04:33:46.400Z,1.70
2023-04-23T04:36:14.603Z,1.77
2023-04-23T04:38:42.281Z,2.00
2023-04-23T04:41:11.474Z,2.00
2023-04-23T04:43:39.232Z,1.77
2023-04-23T04:46:11.723Z,1.87
2023-04-23T04:48:40.124Z,1.97
2023-04-23T04:51:07.984Z,1.97
2023-04-23T04:53:36.190Z,1.63
2023-04-23T04:56:03.930Z,1.50
2023-04-23T04:58:31.814Z,1.57
2023-04-23T05:01:00.298Z,1.60
2023-04-23T05:03:29.665Z,1.87
2023-04-23T05:05:58.856Z,1.80
2023-04-23T05:08:26.632Z,2.00
2023-04-23T05:10:54.866Z,2.00
2023-04-23T05:13:23.160Z,1.60
2023-04-23T05:15:50.816Z,1.77
2023-04-23T05:18:18.522Z,1.60
2023-04-23T05:20:47.615Z,1.50
2023-04-23T05:23:15.357Z,1.70
2023-04-23T05:25:43.050Z,1.53
2023-04-23T05:28:10.757Z,1.70
2023-04-23T05:30:38.851Z,1.50
2023-04-23T05:33:06.743Z,1.47
2023-04-23T05:35:34.510Z,1.40
2023-04-23T05:38:05.030Z,1.60
2023-04-23T05:40:32.894Z,1.70
2023-04-23T05:43:00.819Z,1.70
2023-04-23T05:45:28.948Z,2.20
2023-04-23T05:47:56.686Z,2.13
2023-04-23T05:50:24.663Z,2.30
2023-04-23T05:52:52.424Z,2.40
2023-04-23T05:55:23.880Z,2.63
2023-04-23T05:57:51.609Z,2.93
2023-04-23T06:00:19.471Z,2.80
2023-04-23T06:02:47.994Z,2.67
2023-04-23T06:05:16.595Z,2.63
2023-04-23T06:07:44.749Z,2.40
2023-04-23T06:10:13.228Z,2.60
2023-04-23T06:12:42.526Z,2.47
2023-04-23T06:15:11.412Z,2.20
2023-04-23T06:17:39.398Z,2.00
2023-04-23T06:20:09.035Z,2.07
2023-04-23T06:22:36.889Z,1.80
2023-04-23T06:25:05.190Z,2.07
2023-04-23T06:27:33.869Z,2.20
2023-04-23T06:30:10.478Z,2.70
2023-04-23T06:32:39.002Z,2.80
2023-04-23T06:35:08.474Z,2.70
2023-04-23T06:37:36.643Z,3.00
2023-04-23T06:40:04.790Z,3.80
2023-04-23T06:42:32.508Z,3.33
2023-04-23T06:45:21.525Z,4.20
2023-04-23T06:47:49.828Z,4.43
2023-04-23T06:50:18.229Z,4.30
2023-04-23T06:52:46.151Z,5.27
2023-04-23T06:55:14.009Z,4.97
2023-04-23T06:57:41.780Z,5.37
2023-04-23T07:00:11.763Z,4.60
2023-04-23T07:02:43.720Z,4.80
2023-04-23T07:05:11.747Z,4.20
2023-04-23T07:07:40.714Z,4.70
2023-04-23T07:10:10.191Z,5.07
2023-04-23T07:12:38.148Z,5.47
2023-04-23T07:15:07.716Z,5.07
2023-04-23T07:17:36.076Z,5.93
2023-04-23T07:20:06.640Z,7.87
2023-04-23T07:22:34.504Z,8.10
2023-04-23T07:25:02.599Z,7.97
2023-04-23T07:27:30.346Z,7.20
2023-04-23T07:29:58.580Z,8.63
2023-04-23T07:32:28.376Z,8.27
2023-04-23T07:34:56.634Z,12.40
2023-04-23T07:37:25.737Z,13.27
2023-04-23T07:39:54.012Z,13.53
2023-04-23T07:42:21.768Z,11.80
2023-04-23T07:44:49.572Z,12.87
2023-04-23T07:47:17.226Z,12.83
2023-04-23T07:49:45.028Z,13.97
2023-04-23T07:52:12.895Z,14.57
2023-04-23T07:54:42.036Z,16.43
2023-04-23T07:57:10.395Z,15.70
2023-04-23T07:59:39.501Z,15.33
2023-04-23T08:02:07.702Z,19.33
2023-04-23T08:04:35.676Z,17.17
2023-04-23T08:07:03.742Z,15.70
2023-04-23T08:09:31.716Z,15.57
2023-04-23T08:12:02.065Z,15.00
2023-04-23T08:14:29.773Z,15.87
2023-04-23T08:16:57.675Z,18.23
2023-04-23T08:19:25.862Z,17.63
2023-04-23T08:21:53.951Z,15.23
2023-04-23T08:24:21.776Z,15.00
2023-04-23T08:26:49.868Z,13.80
2023-04-23T08:29:19.046Z,15.67
2023-04-23T08:31:46.842Z,15.80
2023-04-23T08:34:15.041Z,14.23
2023-04-23T08:36:42.924Z,14.27
2023-04-23T08:39:10.806Z,15.80
2023-04-23T08:41:42.689Z,15.37
2023-04-23T08:44:14.886Z,13.30
2023-04-23T08:46:46.437Z,13.70
2023-04-23T08:49:16.142Z,14.73
2023-04-23T08:51:49.278Z,13.33
2023-04-23T08:54:23.516Z,13.83
2023-04-23T08:56:52.584Z,13.73
2023-04-23T08:59:23.055Z,13.97
2023-04-23T09:01:52.821Z,14.30
2023-04-23T09:04:21.131Z,13.60
2023-04-23T09:06:48.868Z,13.97
2023-04-23T09:09:17.976Z,12.57
2023-04-23T09:11:46.128Z,13.90
2023-04-23T09:14:14.290Z,13.80
2023-04-23T09:16:42.758Z,12.43
2023-04-23T09:19:12.618Z,11.70
2023-04-23T09:21:41.004Z,11.03
2023-04-23T09:24:12.432Z,10.23
2023-04-23T09:26:46.782Z,11.07
2023-04-23T09:29:17.488Z,9.43
2023-04-23T09:31:47.638Z,8.57
2023-04-23T09:34:18.508Z,11.50
2023-04-23T09:36:47.136Z,13.70
2023-04-23T09:39:15.436Z,12.07
2023-04-23T09:41:43.313Z,12.47
2023-04-23T09:44:12.398Z,12.03
2023-04-23T09:46:41.633Z,14.60
2023-04-23T09:49:10.564Z,13.53
2023-04-23T09:51:40.818Z,12.87
2023-04-23T09:54:13.346Z,11.80
2023-04-23T09:56:41.332Z,12.50
2023-04-23T09:59:32.488Z,12.20
2023-04-23T10:02:09.612Z,10.03
2023-04-23T10:04:37.544Z,11.67
2023-04-23T10:09:44.302Z,9.50
2023-04-23T10:12:28.961Z,8.67
2023-04-23T10:15:00.818Z,7.43
2023-04-23T10:17:28.585Z,6.90
2023-04-23T10:19:56.868Z,8.47
2023-04-23T10:22:29.558Z,8.17
2023-04-23T10:24:59.261Z,7.70
2023-04-23T10:27:40.274Z,6.43
2023-04-23T10:30:17.375Z,6.20
2023-04-23T10:32:46.102Z,5.27
2023-04-23T10:35:13.754Z,7.43
2023-04-23T10:37:43.782Z,6.87
2023-04-23T10:40:15.171Z,8.10
2023-04-23T10:42:45.401Z,6.50
2023-04-23T10:47:48.079Z,6.23
2023-04-23T10:50:24.389Z,5.60
2023-04-23T10:52:54.526Z,5.63
2023-04-23T10:55:24.421Z,5.67
2023-04-23T10:58:03.255Z,6.97
2023-04-23T11:00:45.487Z,6.70
2023-04-23T11:03:32.123Z,5.93
2023-04-23T11:06:02.918Z,7.03
2023-04-23T11:08:33.094Z,5.90
2023-04-23T11:11:02.423Z,6.10
2023-04-23T11:13:31.304Z,5.40
2023-04-23T11:16:15.591Z,5.03
2023-04-23T11:18:56.481Z,4.10
2023-04-23T11:21:24.109Z,5.33
2023-04-23T11:23:53.062Z,4.53
2023-04-23T11:26:22.524Z,3.73
2023-04-23T11:28:53.616Z,3.73
2023-04-23T11:31:21.351Z,3.60
2023-04-23T11:33:48.965Z,3.90
2023-04-23T11:36:16.935Z,3.43
2023-04-23T11:38:46.164Z,3.13
2023-04-23T11:41:15.408Z,3.20
2023-04-23T11:43:43.595Z,3.63
2023-04-23T11:46:11.261Z,3.30
2023-04-23T11:48:38.946Z,3.00
2023-04-23T11:51:06.673Z,4.00
2023-04-23T11:53:35.214Z,4.30
2023-04-23T11:56:02.952Z,3.40
2023-04-23T11:58:31.864Z,3.17
2023-04-23T12:01:00.702Z,4.00
2023-04-23T12:03:29.959Z,4.63
2023-04-23T12:05:57.831Z,4.47
2023-04-23T12:08:25.776Z,3.63
2023-04-23T12:10:55.035Z,3.97
2023-04-23T12:13:24.212Z,2.70
2023-04-23T12:15:56.526Z,2.20
2023-04-23T12:18:28.876Z,2.17
2023-04-23T12:20:57.490Z,2.50
2023-04-23T12:23:28.074Z,2.13
2023-04-23T12:25:56.659Z,2.07
2023-04-23T12:30:53.923Z,2.50
2023-04-23T12:33:21.889Z,2.40
2023-04-23T12:35:51.804Z,2.23
2023-04-23T12:38:24.515Z,2.07
2023-04-23T12:40:52.569Z,1.87
2023-04-23T12:43:20.231Z,2.07
2023-04-23T12:45:47.947Z,1.73
2023-04-23T12:48:16.983Z,1.70
2023-04-23T12:50:46.037Z,1.60
2023-04-23T12:53:14.080Z,1.37
2023-04-23T12:55:43.220Z,1.17
2023-04-23T12:58:10.888Z,1.13
2023-04-23T13:00:38.673Z,1.17
2023-04-23T13:03:06.429Z,1.60
2023-04-23T13:05:35.550Z,1.25
2023-04-23T13:08:03.149Z,2.00
2023-04-23T13:10:30.991Z,1.50
2023-04-23T13:12:58.660Z,1.70
2023-04-23T13:15:27.115Z,1.30
2023-04-23T13:17:54.948Z,1.30
2023-04-23T13:20:22.709Z,1.60
2023-04-23T13:22:51.713Z,1.50
2023-04-23T13:25:19.486Z,1.60
2023-04-23T13:27:47.122Z,1.23
2023-04-23T13:30:15.151Z,1.57
2023-04-23T13:32:42.803Z,1.60
2023-04-23T13:35:11.023Z,1.37
2023-04-23T13:37:41.101Z,1.13
2023-04-23T13:40:14.210Z,1.20
2023-04-23T13:42:41.820Z,1.40
2023-04-23T13:45:09.952Z,1.10
2023-04-23T13:47:37.648Z,1.80
2023-04-23T13:50:06.943Z,1.50
2023-04-23T13:52:34.845Z,1.53
2023-04-23T13:55:03.990Z,1.40
2023-04-23T14:00:00.616Z,1.50
2023-04-23T14:02:28.422Z,1.37
2023-04-23T14:04:56.278Z,1.20
2023-04-23T14:07:23.863Z,1.10
2023-04-23T14:09:52.895Z,1.40
2023-04-23T14:12:20.782Z,1.80
2023-04-23T14:14:49.434Z,1.40
2023-04-23T14:17:18.404Z,1.40
2023-04-23T14:19:46.016Z,1.20
2023-04-23T14:22:13.965Z,1.40
2023-04-23T14:24:47.255Z,1.50
2023-04-23T14:27:14.982Z,1.37
2023-04-23T14:29:47.342Z,1.13
2023-04-23T14:32:15.057Z,1.33
2023-04-23T14:34:45.149Z,1.80
2023-04-23T14:37:12.901Z,1.50
2023-04-23T14:39:42.289Z,1.50
2023-04-23T14:42:10.463Z,1.30
2023-04-23T14:44:38.149Z,1.60
2023-04-23T14:47:08.081Z,1.50
2023-04-23T14:49:35.864Z,1.50
2023-04-23T14:52:04.965Z,1.60
2023-04-23T14:54:32.615Z,1.53
2023-04-23T14:57:00.540Z,1.37
2023-04-23T14:59:28.303Z,1.80
2023-04-23T15:01:56.609Z,1.40
2023-04-23T15:04:24.559Z,1.47
2023-04-23T15:06:52.257Z,1.60
2023-04-23T15:09:21.207Z,1.80
2023-04-23T15:11:48.883Z,1.50
2023-04-23T15:14:21.497Z,1.40
2023-04-23T15:16:50.052Z,1.37
2023-04-23T15:19:19.178Z,1.30
2023-04-23T15:21:47.265Z,1.40
2023-04-23T15:24:15.322Z,1.43
2023-04-23T15:26:45.825Z,1.60
2023-04-23T15:29:14.157Z,1.70
2023-04-23T15:31:42.609Z,1.50
2023-04-23T15:34:11.605Z,1.40
2023-04-23T15:36:39.330Z,1.40
2023-04-23T15:39:07.564Z,1.47
2023-04-23T15:41:39.418Z,1.40
2023-04-23T15:44:12.354Z,1.90
2023-04-23T15:46:40.798Z,1.47
2023-04-23T15:49:08.714Z,1.30
2023-04-23T15:51:36.701Z,1.30
2023-04-23T15:54:07.974Z,1.67
2023-04-23T15:56:35.912Z,1.70
2023-04-23T15:59:03.605Z,1.53
2023-04-23T16:01:32.684Z,1.47
2023-04-23T16:06:31.787Z,1.40
2023-04-23T16:08:59.505Z,1.43
2023-04-23T16:11:28.247Z,1.30
2023-04-23T16:13:57.063Z,1.50
2023-04-23T16:16:24.838Z,1.50
2023-04-23T16:18:55.689Z,1.57
2023-04-23T16:21:24.094Z,1.40
2023-04-23T16:23:52.047Z,1.50
2023-04-23T16:26:19.784Z,1.37
2023-04-23T16:28:52.227Z,1.50
2023-04-23T16:31:33.113Z,1.30
2023-04-23T16:34:02.271Z,1.40
2023-04-23T16:36:30.209Z,1.17
2023-04-23T16:38:58.082Z,1.00
2023-04-23T16:41:25.747Z,1.20
2023-04-23T16:43:53.520Z,1.00
2023-04-23T16:46:21.369Z,1.10
2023-04-23T16:48:49.116Z,0.97
2023-04-23T16:51:18.328Z,1.00
2023-04-23T16:53:45.966Z,1.10
2023-04-23T16:56:13.900Z,1.10
2023-04-23T16:58:41.698Z,1.13
2023-04-23T17:01:09.399Z,1.20
2023-04-23T17:03:37.376Z,1.20
2023-04-23T17:06:11.275Z,1.17
2023-04-23T17:08:40.936Z,1.20
2023-04-23T17:11:09.011Z,1.10
2023-04-23T17:13:37.548Z,1.10
2023-04-23T17:16:05.294Z,1.30
2023-04-23T17:18:33.352Z,1.53
2023-04-23T17:21:01.313Z,1.60
2023-04-23T17:23:28.973Z,1.00
2023-04-23T17:25:57.998Z,1.40
2023-04-23T17:28:25.644Z,1.27
2023-04-23T17:30:55.764Z,1.00
2023-04-23T17:33:24.389Z,1.00
2023-04-23T17:35:53.228Z,1.00
2023-04-23T17:38:21.320Z,1.10
2023-04-23T17:40:49.837Z,0.93
2023-04-23T17:43:19.053Z,1.10
2023-04-23T17:45:47.665Z,1.10
2023-04-23T17:48:16.441Z,0.97
2023-04-23T17:50:44.603Z,0.90
2023-04-23T17:53:12.264Z,1.00
2023-04-23T17:55:41.296Z,0.90
2023-04-23T17:58:09.990Z,1.00
2023-04-23T18:00:41.789Z,0.87
2023-04-23T18:03:11.258Z,1.03
2023-04-23T18:05:38.959Z,1.10
2023-04-23T18:08:07.748Z,1.30
2023-04-23T18:10:35.700Z,1.20
2023-04-23T18:13:04.761Z,1.10
2023-04-23T18:15:33.537Z,1.30
2023-04-23T18:18:02.573Z,1.20
2023-04-23T18:20:31.957Z,1.00
2023-04-23T18:22:59.631Z,1.37
2023-04-23T18:25:27.537Z,1.30
2023-04-23T18:27:55.190Z,0.90
2023-04-23T18:30:23.518Z,1.10
2023-04-23T18:33:00.654Z,0.90
2023-04-23T18:35:29.745Z,1.10
2023-04-23T18:38:06.684Z,1.10
2023-04-23T18:40:34.547Z,1.00
2023-04-23T18:43:02.676Z,0.90
2023-04-23T18:45:30.378Z,0.87
2023-04-23T18:47:59.463Z,0.90
2023-04-23T18:50:42.644Z,0.80
2023-04-23T18:53:10.409Z,0.80
2023-04-23T18:55:38.140Z,1.00
2023-04-23T18:58:05.821Z,0.83
2023-04-23T19:00:33.588Z,0.70
2023-04-23T19:03:06.500Z,1.23
2023-04-23T19:05:38.520Z,0.60
2023-04-23T19:08:07.177Z,0.70
2023-04-23T19:10:34.847Z,0.90
2023-04-23T19:13:02.489Z,0.90
2023-04-23T19:15:31.201Z,0.67
2023-04-23T19:17:59.834Z,0.80
2023-04-23T19:20:28.086Z,0.80
2023-04-23T19:22:57.226Z,0.80
2023-04-23T19:25:24.920Z,0.97
2023-04-23T19:27:52.682Z,0.80
2023-04-23T19:30:20.426Z,0.97
2023-04-23T19:32:48.113Z,1.10
2023-04-23T19:35:15.982Z,1.10
2023-04-23T19:37:43.635Z,1.20
2023-04-23T19:40:14.611Z,1.10
2023-04-23T19:42:42.268Z,1.03
2023-04-23T19:45:10.553Z,1.40
2023-04-23T19:47:40.022Z,1.30
2023-04-23T19:50:09.821Z,1.10
2023-04-23T19:52:37.568Z,1.23
2023-04-23T19:55:06.239Z,1.13
2023-04-23T19:57:35.603Z,1.30
2023-04-23T20:00:05.019Z,1.23
2023-04-23T20:02:34.245Z,1.43
2023-04-23T20:05:03.158Z,1.20
2023-04-23T20:07:30.938Z,1.20
2023-04-23T20:09:58.571Z,1.30
2023-04-23T20:12:26.272Z,1.60
2023-04-23T20:14:55.824Z,1.50
2023-04-23T20:17:23.717Z,1.80
2023-04-23T20:19:51.423Z,1.40
2023-04-23T20:22:19.282Z,1.67
2023-04-23T20:24:49.093Z,1.40
2023-04-23T20:27:17.250Z,1.67
2023-04-23T20:29:44.944Z,1.77
2023-04-23T20:32:14.184Z,1.43
2023-04-23T20:34:41.852Z,1.50
2023-04-23T20:37:10.330Z,1.43
2023-04-23T20:39:38.339Z,1.40
2023-04-23T20:42:07.091Z,1.60
2023-04-23T20:44:34.806Z,1.40
2023-04-23T20:47:05.686Z,1.37
2023-04-23T20:49:34.934Z,1.47
2023-04-23T20:52:02.708Z,1.60
2023-04-23T20:54:30.919Z,1.47
2023-04-23T20:56:58.642Z,1.50
2023-04-23T20:59:26.342Z,1.70
2023-04-23T21:01:54.176Z,1.40
2023-04-23T21:04:21.999Z,1.70
2023-04-23T21:06:51.524Z,1.60
2023-04-23T21:09:19.216Z,1.87
2023-04-23T21:11:46.904Z,1.60
2023-04-23T21:14:14.581Z,2.07
2023-04-23T21:16:42.212Z,2.07
2023-04-23T21:19:09.874Z,1.80
2023-04-23T21:21:37.525Z,1.83
2023-04-23T21:24:07.822Z,1.80
2023-04-23T21:26:35.463Z,1.73
2023-04-23T21:29:03.210Z,1.90
2023-04-23T21:31:42.145Z,2.73
2023-04-23T21:34:09.880Z,2.93
2023-04-23T21:36:37.718Z,3.03
2023-04-23T21:39:08.054Z,3.23
2023-04-23T21:41:35.867Z,3.50
2023-04-23T21:44:03.649Z,3.80
2023-04-23T21:46:32.164Z,3.50
2023-04-23T21:48:59.944Z,3.17
2023-04-23T21:51:28.071Z,2.90
2023-04-23T21:53:55.761Z,2.80
2023-04-23T21:56:24.790Z,2.50
2023-04-23T21:58:52.492Z,2.07
2023-04-23T22:01:20.378Z,2.17
2023-04-23T22:03:48.321Z,2.23
2023-04-23T22:06:17.483Z,2.17
2023-04-23T22:08:46.325Z,2.00
2023-04-23T22:11:14.658Z,1.87
2023-04-23T22:13:43.723Z,2.10
2023-04-23T22:16:24.581Z,2.20
2023-04-23T22:18:55.760Z,2.30
2023-04-23T22:21:23.600Z,2.03
2023-04-23T22:23:51.295Z,2.17
2023-04-23T22:26:18.910Z,2.30
2023-04-23T22:28:48.174Z,2.00
2023-04-23T22:31:15.937Z,2.23
2023-04-23T22:33:43.827Z,2.33
2023-04-23T22:36:11.552Z,2.13
2023-04-23T22:38:39.478Z,1.80
2023-04-23T22:41:07.828Z,2.20
2023-04-23T22:43:35.467Z,2.17
2023-04-23T22:46:04.642Z,2.00
2023-04-23T22:48:32.317Z,2.30
2023-04-23T22:51:00.019Z,2.23
2023-04-23T22:53:27.647Z,2.17
2023-04-23T22:55:55.278Z,2.23
2023-04-23T22:58:23.126Z,2.20
2023-04-23T23:00:51.462Z,2.30
2023-04-23T23:03:20.613Z,2.20
2023-04-23T23:05:48.491Z,2.03
2023-04-23T23:08:16.209Z,2.30
2023-04-23T23:10:43.874Z,2.13
2023-04-23T23:13:11.556Z,2.10
2023-04-23T23:15:39.245Z,2.50
2023-04-23T23:18:07.773Z,2.17
2023-04-23T23:20:36.852Z,1.90
2023-04-23T23:23:04.603Z,2.20
2023-04-23T23:25:32.667Z,2.50
2023-04-23T23:28:00.308Z,2.77
2023-04-23T23:30:27.939Z,3.00
2023-04-23T23:32:56.845Z,2.67
2023-04-23T23:35:24.548Z,2.37
2023-04-23T23:37:53.729Z,2.40
2023-04-23T23:40:21.622Z,2.33
2023-04-23T23:42:49.316Z,2.60
2023-04-23T23:45:17.078Z,2.57
2023-04-23T23:47:46.963Z,2.70
2023-04-23T23:50:14.747Z,2.63
2023-04-23T23:52:42.381Z,2.30
2023-04-23T23:55:11.951Z,2.30
2023-04-23T23:57:40.330Z,2.60
